Time;durP1;ratioP1;P1;durP2;ratioP2;P2;SDS_P1;SDS_P2;PMS_P1;PMS_P2;Temp;Humidity;BMP_temperature;BMP_pressure;BME280_temperature;BME280_humidity;BME280_pressure;Samples;Min_cycle;Max_cycle;Signal;HPM_P1;HPM_P2
2022/11/08 00:01:57;;;;;;;20.40;14.15;;;;;;;10.48;90.06;96080.84;1720084;83;21036;-66
2022/11/08 00:04:25;;;;;;;21.27;14.55;;;;;;;10.45;89.60;96080.85;1723375;83;21048;-66
2022/11/08 00:15:09;;;;;;;18.00;12.82;;;;;;;10.36;89.06;96070.41;1718871;83;21028;-66
2022/11/08 00:17:36;;;;;;;17.67;13.78;;;;;;;10.30;88.99;96079.69;1724121;83;20991;-67
2022/11/08 00:20:04;;;;;;;19.32;12.47;;;;;;;10.36;89.88;96083.60;1723495;83;21176;-67
2022/11/08 00:22:30;;;;;;;17.07;13.15;;;;;;;10.32;89.42;96075.28;1724920;83;21585;-66
2022/11/08 00:24:57;;;;;;;15.43;11.00;;;;;;;10.34;89.55;96073.51;1727283;83;21047;-66
2022/11/08 00:27:25;;;;;;;16.45;12.33;;;;;;;10.33;89.62;96073.06;1723204;83;21043;-66
2022/11/08 00:29:52;;;;;;;17.20;12.75;;;;;;;10.33;89.58;96073.06;1723709;81;21135;-66
2022/11/08 00:32:22;;;;;;;19.57;12.93;;;;;;;10.37;90.12;96074.34;1724837;83;21035;-67
2022/11/08 00:34:49;;;;;;;16.52;12.82;;;;;;;10.45;90.34;96068.98;1724016;83;21084;-66
2022/11/08 00:37:18;;;;;;;17.32;13.62;;;;;;;10.46;89.23;96072.48;1721600;83;21015;-66
2022/11/08 00:39:45;;;;;;;18.52;13.90;;;;;;;10.34;88.82;96073.05;1722482;83;21039;-67
2022/11/08 00:42:12;;;;;;;17.00;12.40;;;;;;;10.36;89.71;96072.60;1726040;83;21036;-67
2022/11/08 00:44:39;;;;;;;19.50;12.60;;;;;;;10.42;89.74;96072.98;1725534;83;21044;-66
2022/11/08 00:47:06;;;;;;;18.30;12.60;;;;;;;10.50;90.08;96072.89;1723001;83;21037;-66
2022/11/08 00:49:33;;;;;;;15.83;12.18;;;;;;;10.55;89.90;96077.23;1727076;83;21024;-66
2022/11/08 00:51:59;;;;;;;16.87;12.60;;;;;;;10.52;89.11;96066.71;1726484;83;21036;-66
2022/11/08 00:54:26;;;;;;;14.55;11.38;;;;;;;10.46;88.94;96071.16;1726392;83;21195;-66
2022/11/08 00:56:53;;;;;;;14.78;10.65;;;;;;;10.44;89.06;96070.34;1722611;83;21079;-66
2022/11/08 00:59:19;;;;;;;14.87;11.03;;;;;;;10.36;88.88;96072.60;1725554;82;21589;-66
2022/11/08 01:01:47;;;;;;;14.63;11.38;;;;;;;10.36;89.21;96069.97;1717179;83;21047;-67
2022/11/08 01:04:16;;;;;;;13.98;10.55;;;;;;;10.38;89.59;96073.47;1724335;83;21071;-66
2022/11/08 01:06:44;;;;;;;12.28;9.98;;;;;;;10.33;88.84;96073.96;1725193;83;21012;-66
2022/11/08 01:09:11;;;;;;;12.95;10.23;;;;;;;10.32;89.46;96066.91;1723432;83;21063;-66
2022/11/08 01:11:39;;;;;;;12.75;10.25;;;;;;;10.39;89.84;96066.42;1723519;83;21111;-66
2022/11/08 01:14:06;;;;;;;15.40;10.80;;;;;;;10.48;90.24;96067.66;1726520;83;21078;-66
2022/11/08 01:16:34;;;;;;;15.10;10.82;;;;;;;10.58;90.26;96061.80;1722709;83;21024;-66
2022/11/08 01:19:02;;;;;;;16.87;10.70;;;;;;;10.59;89.40;96064.44;1723117;83;21478;-66
2022/11/08 01:21:29;;;;;;;13.22;11.10;;;;;;;10.55;88.84;96066.67;1719085;83;21089;-67
2022/11/08 01:23:55;;;;;;;13.40;10.60;;;;;;;10.53;88.77;96070.22;1723378;83;21059;-66
2022/11/08 01:26:27;;;;;;;12.93;10.38;;;;;;;10.50;88.59;96067.16;1698727;83;22845;-66
2022/11/08 01:28:55;;;;;;;13.90;10.38;;;;;;;10.44;88.56;96069.02;1725505;83;21582;-66
2022/11/08 01:31:27;;;;;;;14.43;11.25;;;;;;;10.43;89.04;96060.20;1724450;83;21072;-66
2022/11/08 01:33:54;;;;;;;16.80;11.15;;;;;;;10.46;88.99;96065.89;1724592;83;21038;-66
2022/11/08 01:36:24;;;;;;;12.93;10.88;;;;;;;10.47;89.19;96064.57;1724061;83;21032;-67
2022/11/08 01:38:52;;;;;;;13.65;11.12;;;;;;;10.52;89.66;96071.13;1726577;83;21035;-66
2022/11/08 01:41:22;;;;;;;14.03;10.55;;;;;;;10.47;88.57;96069.84;1722567;83;21028;-66
2022/11/08 01:43:57;;;;;;;13.25;10.28;;;;;;;10.37;88.47;96071.70;1722964;83;21055;-66
2022/11/08 01:46:38;;;;;;;14.38;11.15;;;;;;;10.37;88.87;96064.23;1721217;83;21071;-66
2022/11/08 01:49:32;;;;;;;13.95;11.43;;;;;;;10.38;89.32;96070.83;1723075;82;21079;-66
2022/11/08 01:52:31;;;;;;;14.83;11.35;;;;;;;10.38;89.57;96065.55;1717550;83;21084;-66
2022/11/08 01:55:04;;;;;;;15.20;11.30;;;;;;;10.48;89.96;96064.11;1718359;83;21232;-66
2022/11/08 01:57:45;;;;;;;14.78;10.58;;;;;;;10.50;89.73;96066.30;1721313;83;21087;-66
2022/11/08 02:00:12;;;;;;;6.35;5.15;;;;;;;10.45;88.84;96072.94;1718191;83;21051;-67
2022/11/08 02:02:43;;;;;;;11.30;5.15;;;;;;;10.37;89.01;96069.52;1722169;83;21505;-67
2022/11/08 02:05:24;;;;;;;8.28;5.30;;;;;;;10.29;88.88;96066.95;1724600;83;21004;-66
2022/11/08 02:08:33;;;;;;;9.03;5.40;;;;;;;10.19;88.84;96073.17;1720181;83;21514;-67
2022/11/08 02:11:01;;;;;;;8.75;5.60;;;;;;;10.09;88.87;96076.34;1722298;83;21037;-67
2022/11/08 02:13:29;;;;;;;12.13;5.80;;;;;;;10.08;89.45;96077.66;1722559;83;21083;-66
2022/11/08 02:15:57;;;;;;;10.13;6.37;;;;;;;10.06;89.45;96083.41;1724321;83;21028;-66
2022/11/08 02:18:30;;;;;;;12.20;6.50;;;;;;;9.99;89.22;96085.22;1723689;83;21000;-66
2022/11/08 02:21:11;;;;;;;12.85;7.40;;;;;;;9.93;89.32;96083.52;1722347;83;21118;-66
2022/11/08 02:23:56;;;;;;;12.47;8.00;;;;;;;9.91;89.56;96080.01;1724395;83;21028;-66
2022/11/08 02:26:33;;;;;;;13.18;8.53;;;;;;;9.87;89.46;96078.27;1725649;83;21079;-66
2022/11/08 02:29:24;;;;;;;14.03;8.45;;;;;;;9.83;89.37;96080.97;1723690;83;22998;-66
2022/11/08 02:31:52;;;;;;;14.38;9.70;;;;;;;9.78;89.48;96078.37;1722674;83;21060;-66
2022/11/08 02:34:23;;;;;;;17.23;9.70;;;;;;;9.74;89.51;96079.27;1719335;83;21043;-67
2022/11/08 02:36:50;;;;;;;15.20;10.15;;;;;;;9.70;89.43;96071.84;1698082;83;21180;-67
2022/11/08 02:39:16;;;;;;;17.95;10.50;;;;;;;9.70;89.50;96073.58;1727888;83;21019;-66
2022/11/08 02:41:43;;;;;;;16.25;9.65;;;;;;;9.68;89.43;96076.23;1722117;83;21040;-66
2022/11/08 02:44:09;;;;;;;18.95;11.97;;;;;;;9.68;89.51;96078.01;1724049;83;21060;-66
2022/11/08 02:46:36;;;;;;;16.35;11.03;;;;;;;9.65;89.53;96076.69;1723965;83;21067;-67
2022/11/08 02:49:03;;;;;;;19.07;10.68;;;;;;;9.60;89.38;96074.11;1721540;83;21087;-67
2022/11/08 02:51:30;;;;;;;16.23;10.82;;;;;;;9.54;89.38;96077.64;1726271;83;21020;-66
2022/11/08 02:53:57;;;;;;;19.55;10.95;;;;;;;9.50;89.29;96076.37;1721936;83;21134;-66
2022/11/08 02:56:23;;;;;;;17.05;10.68;;;;;;;9.44;89.51;96078.58;1725966;83;21032;-66
2022/11/08 02:58:50;;;;;;;20.82;11.22;;;;;;;9.42;89.57;96076.84;1722430;83;21071;-66
2022/11/08 03:01:17;;;;;;;17.32;10.32;;;;;;;9.39;89.59;96080.38;1726651;83;21024;-66
2022/11/08 03:03:44;;;;;;;17.35;10.55;;;;;;;9.39;89.74;96077.74;1724613;83;20996;-66
2022/11/08 03:06:10;;;;;;;15.43;10.23;;;;;;;9.41;89.81;96083.87;1725206;83;21032;-66
2022/11/08 03:08:37;;;;;;;18.07;10.78;;;;;;;9.39;89.52;96085.64;1727109;83;21050;-66
2022/11/08 03:11:03;;;;;;;14.75;10.23;;;;;;;9.38;89.69;96075.14;1728218;83;21509;-66
2022/11/08 03:13:30;;;;;;;16.77;10.40;;;;;;;9.41;89.97;96089.15;1722603;83;21079;-66
2022/11/08 03:16:03;;;;;;;14.90;10.45;;;;;;;9.42;89.78;96088.25;1722506;83;21103;-66
2022/11/08 03:18:30;;;;;;;15.70;10.00;;;;;;;9.38;89.27;96089.17;1724338;83;21047;-66
2022/11/08 03:21:00;;;;;;;15.18;9.95;;;;;;;9.38;89.43;96097.08;1724143;83;21088;-66
2022/11/08 03:23:27;;;;;;;15.50;10.03;;;;;;;9.41;89.66;96101.45;1722208;83;21041;-67
2022/11/08 03:25:54;;;;;;;16.70;9.60;;;;;;;9.40;89.65;96102.31;1722273;83;21127;-67
2022/11/08 03:28:21;;;;;;;15.50;9.88;;;;;;;9.46;89.94;96104.48;1725651;83;21004;-67
2022/11/08 03:30:51;;;;;;;16.65;10.80;;;;;;;9.40;89.15;96101.89;1721428;83;21063;-66
2022/11/08 03:33:19;;;;;;;13.78;9.03;;;;;;;9.35;88.96;96107.63;1722305;83;21040;-66
2022/11/08 03:35:48;;;;;;;19.73;10.18;;;;;;;9.27;88.81;96106.36;1723981;83;21589;-66
2022/11/08 03:38:15;;;;;;;15.48;10.50;;;;;;;9.28;89.43;96111.17;1723719;83;21000;-66
2022/11/08 03:40:42;;;;;;;15.50;9.98;;;;;;;9.33;89.77;96108.08;1724746;83;21079;-66
2022/11/08 03:43:09;;;;;;;17.98;10.32;;;;;;;9.38;89.64;96115.52;1723438;83;21546;-67
2022/11/08 03:45:36;;;;;;;15.83;9.60;;;;;;;9.41;89.67;96119.88;1723292;83;21056;-66
2022/11/08 03:48:03;;;;;;;15.58;10.20;;;;;;;9.41;89.40;96116.80;1723261;83;21577;-66
2022/11/08 03:50:30;;;;;;;15.50;10.18;;;;;;;9.44;89.50;96109.33;1725863;83;21049;-66
2022/11/08 03:52:57;;;;;;;15.03;10.00;;;;;;;9.44;89.33;96110.64;1725028;83;21470;-66
2022/11/08 03:55:26;;;;;;;15.95;10.45;;;;;;;9.41;88.99;96110.22;1722985;83;21020;-67
2022/11/08 03:57:53;;;;;;;16.93;10.85;;;;;;;9.42;89.21;96107.14;1724321;83;21039;-66
2022/11/08 04:00:25;;;;;;;18.17;11.18;;;;;;;9.45;89.40;96109.33;1723609;83;21051;-66
2022/11/08 04:02:54;;;;;;;15.93;10.50;;;;;;;9.49;89.36;96111.04;1720217;83;21158;-67
2022/11/08 04:05:21;;;;;;;16.97;10.10;;;;;;;9.47;89.14;96108.84;1724581;83;21221;-66
2022/11/08 04:07:48;;;;;;;17.50;11.43;;;;;;;9.47;89.15;96114.56;1722732;83;21075;-67
2022/11/08 04:10:14;;;;;;;19.92;9.78;;;;;;;9.46;89.20;96121.60;1723744;83;21028;-66
2022/11/08 04:15:29;;;;;;;16.42;10.93;;;;;;;9.38;88.57;96113.33;1726441;83;21127;-66
2022/11/08 04:23:33;;;;;;;17.42;10.58;;;;;;;9.40;89.04;96115.48;1724434;83;21140;-67
2022/11/08 04:26:03;;;;;;;16.15;9.85;;;;;;;9.37;89.00;96119.45;1722152;83;21047;-66
2022/11/08 04:28:33;;;;;;;16.90;11.05;;;;;;;9.44;89.48;96120.73;1724831;83;21031;-66
2022/11/08 04:31:08;;;;;;;20.30;11.80;;;;;;;9.43;88.96;96118.98;1724477;83;21118;-66
2022/11/08 04:33:35;;;;;;;19.32;12.15;;;;;;;9.43;89.19;96114.17;1725167;83;21162;-66
2022/11/08 04:36:10;;;;;;;23.50;13.15;;;;;;;9.47;89.38;96114.56;1723473;83;21047;-66
2022/11/08 04:38:37;;;;;;;33.08;14.13;;;;;;;9.51;89.32;96115.86;1722879;83;21526;-66
2022/11/08 04:41:11;;;;;;;27.35;15.63;;;;;;;9.50;89.25;96116.76;1722264;83;21566;-66
2022/11/08 04:43:38;;;;;;;26.95;15.50;;;;;;;9.48;88.87;96113.25;1721761;83;21549;-66
2022/11/08 04:46:09;;;;;;;25.15;15.20;;;;;;;9.42;88.61;96108.00;1722044;83;21072;-67
2022/11/08 04:48:36;;;;;;;27.95;16.90;;;;;;;9.35;88.54;96108.95;1722004;83;21074;-66
2022/11/08 04:51:08;;;;;;;30.52;17.42;;;;;;;9.32;88.77;96103.67;1724648;83;21540;-67
2022/11/08 04:53:35;;;;;;;31.90;18.40;;;;;;;9.34;89.01;96106.31;1698171;83;21048;-67
2022/11/08 04:56:06;;;;;;;26.23;16.07;;;;;;;9.35;88.78;96101.47;1724801;83;22208;-66
2022/11/08 04:58:36;;;;;;;28.65;16.17;;;;;;;9.36;88.87;96102.78;1720909;83;21056;-66
2022/11/08 05:01:04;;;;;;;26.07;14.83;;;;;;;9.28;88.31;96104.14;1722878;83;21580;-66
2022/11/08 05:03:31;;;;;;;28.10;15.15;;;;;;;9.24;88.40;96101.53;1727298;83;21043;-66
2022/11/08 05:06:03;;;;;;;28.32;16.42;;;;;;;9.18;88.38;96099.81;1725860;83;21153;-67
2022/11/08 05:08:30;;;;;;;26.27;15.25;;;;;;;9.09;88.20;96099.84;1718714;83;21066;-67
2022/11/08 05:11:10;;;;;;;27.17;16.02;;;;;;;9.03;88.40;96104.70;1724756;83;21047;-67
2022/11/08 05:13:37;;;;;;;26.15;15.70;;;;;;;9.05;88.73;96099.45;1721607;83;21162;-66
2022/11/08 05:16:10;;;;;;;32.25;17.07;;;;;;;9.05;88.89;96103.39;1723921;83;21079;-66
2022/11/08 05:18:38;;;;;;;30.23;15.23;;;;;;;9.01;88.67;96101.20;1722443;83;21248;-66
2022/11/08 05:23:50;;;;;;;29.70;16.55;;;;;;;8.96;88.24;96104.74;1724101;83;21035;-66
2022/11/08 05:26:19;;;;;;;31.50;18.85;;;;;;;8.84;88.17;96105.66;1725119;83;21075;-66
2022/11/08 05:28:46;;;;;;;31.62;16.87;;;;;;;8.76;88.65;96113.58;1723341;83;21007;-66
2022/11/08 05:31:14;;;;;;;28.65;17.98;;;;;;;8.68;88.20;96113.17;1721413;83;21095;-67
2022/11/08 05:33:41;;;;;;;28.73;16.20;;;;;;;8.55;88.11;96115.84;1724861;83;21048;-66
2022/11/08 05:36:11;;;;;;;31.17;16.80;;;;;;;8.53;88.58;96109.70;1725155;83;21035;-66
2022/11/08 05:38:39;;;;;;;25.43;16.30;;;;;;;8.53;88.99;96113.64;1721774;83;21036;-67
2022/11/08 05:41:15;;;;;;;24.55;14.45;;;;;;;8.52;88.83;96113.66;1720958;83;21035;-67
2022/11/08 05:43:45;;;;;;;30.17;16.52;;;;;;;8.50;88.90;96114.97;1723651;83;21027;-66
2022/11/08 05:46:13;;;;;;;29.82;16.48;;;;;;;8.47;89.36;96107.09;1727945;83;21083;-66
2022/11/08 05:48:42;;;;;;;27.20;15.90;;;;;;;8.41;88.63;96110.59;1726674;83;21449;-71
2022/11/08 05:51:10;;;;;;;34.85;16.85;;;;;;;8.36;89.07;96114.95;1722601;83;21040;-70
2022/11/08 05:53:38;;;;;;;21.52;13.93;;;;;;;8.30;88.46;96110.16;1767530;81;21018;-71
2022/11/08 05:56:05;;;;;;;23.95;15.15;;;;;;;8.17;88.36;96114.11;1759696;81;21054;-70
2022/11/08 05:58:34;;;;;;;27.75;14.98;;;;;;;8.16;88.72;96121.98;1765331;81;21027;-70
2022/11/08 06:01:08;;;;;;;25.92;14.95;;;;;;;8.13;88.96;96120.23;1762542;81;21086;-71
2022/11/08 06:03:35;;;;;;;26.12;14.83;;;;;;;8.15;89.30;96127.69;1756230;81;21040;-66
2022/11/08 06:06:09;;;;;;;57.85;36.98;;;;;;;8.22;89.51;96133.38;1760259;81;21046;-75
2022/11/08 06:08:36;;;;;;;39.63;24.23;;;;;;;8.36;90.15;96132.48;1761447;81;21031;-65
2022/11/08 06:11:05;;;;;;;39.90;22.65;;;;;;;8.50;90.23;96136.02;1762989;81;21503;-69
2022/11/08 06:13:33;;;;;;;33.33;19.20;;;;;;;8.62;90.23;96135.99;1761216;80;21035;-67
2022/11/08 06:16:03;;;;;;;36.77;22.17;;;;;;;8.68;89.33;96137.72;1769475;81;21470;-67
2022/11/08 06:18:31;;;;;;;34.63;18.75;;;;;;;8.67;89.41;96138.62;1765091;81;21584;-67
2022/11/08 06:21:00;;;;;;;25.72;15.50;;;;;;;8.75;89.66;96143.41;1758346;81;21668;-65
2022/11/08 06:23:28;;;;;;;28.77;16.25;;;;;;;8.77;89.55;96141.66;1758435;81;21007;-66
2022/11/08 06:25:55;;;;;;;27.82;16.80;;;;;;;8.85;89.74;96142.50;1757035;81;21051;-66
2022/11/08 06:28:22;;;;;;;29.02;17.20;;;;;;;8.97;90.01;96132.38;1763094;81;21062;-66
2022/11/08 06:30:49;;;;;;;34.80;18.77;;;;;;;9.06;89.89;96133.64;1762221;80;21000;-66
2022/11/08 06:33:16;;;;;;;31.55;18.98;;;;;;;9.11;89.50;96131.00;1762738;81;21031;-68
2022/11/08 06:35:42;;;;;;;32.42;19.25;;;;;;;9.18;89.55;96137.13;1757534;81;21087;-70
2022/11/08 06:38:09;;;;;;;32.40;20.02;;;;;;;9.19;89.13;96141.05;1760236;81;21030;-72
2022/11/08 06:40:39;;;;;;;31.17;18.70;;;;;;;9.17;88.89;96145.47;1763871;81;21042;-69
2022/11/08 06:43:06;;;;;;;36.58;21.00;;;;;;;9.24;89.50;96143.66;1762589;81;21018;-71
2022/11/08 06:45:32;;;;;;;34.05;20.15;;;;;;;9.36;89.78;96142.29;1765564;81;21066;-72
2022/11/08 06:48:01;;;;;;;37.45;21.80;;;;;;;9.42;89.19;96138.30;1764827;80;20999;-71
2022/11/08 06:50:31;;;;;;;112.35;50.52;;;;;;;9.48;88.93;96147.95;1759846;81;21117;-72
2022/11/08 06:53:00;;;;;;;34.63;19.30;;;;;;;9.60;89.32;96145.24;1766234;81;21085;-72
2022/11/08 06:55:28;;;;;;;32.25;18.98;;;;;;;9.69;89.00;96148.25;1764273;81;21040;-68
2022/11/08 06:57:55;;;;;;;35.65;17.23;;;;;;;9.82;89.15;96153.86;1763791;81;21031;-70
2022/11/08 07:00:23;;;;;;;27.30;14.68;;;;;;;9.94;88.37;96155.10;1767078;81;21054;-72
2022/11/08 07:02:58;;;;;;;31.62;15.90;;;;;;;9.97;87.83;96157.71;1758393;81;21126;-70
2022/11/08 07:05:26;;;;;;;34.45;16.05;;;;;;;9.95;86.99;96154.23;1760011;80;21505;-70
2022/11/08 07:07:53;;;;;;;32.42;15.65;;;;;;;9.96;87.39;96157.29;1722540;82;21149;-69
2022/11/08 07:10:26;;;;;;;29.32;15.58;;;;;;;9.97;87.54;96156.39;1703611;83;21551;-69
2022/11/08 07:13:07;;;;;;;36.15;17.42;;;;;;;9.98;87.33;96159.93;1701158;83;21065;-71
2022/11/08 07:15:35;;;;;;;31.07;15.90;;;;;;;9.93;86.93;96159.95;1723767;82;21544;-69
2022/11/08 07:18:11;;;;;;;28.75;17.27;;;;;;;9.91;87.03;96163.04;1711941;83;21117;-70
2022/11/08 07:20:39;;;;;;;33.67;17.52;;;;;;;9.91;86.99;96168.77;1713268;83;21544;-70
2022/11/08 07:23:06;;;;;;;34.98;17.20;;;;;;;9.90;87.01;96165.26;1725708;82;21560;-70
2022/11/08 07:25:33;;;;;;;31.20;17.00;;;;;;;9.93;87.35;96164.36;1726050;82;21541;-68
2022/11/08 07:28:03;;;;;;;39.35;18.02;;;;;;;9.95;87.11;96173.11;1720962;82;21089;-71
2022/11/08 07:30:32;;;;;;;30.85;17.23;;;;;;;9.99;87.20;96173.53;1724348;82;21642;-71
2022/11/08 07:32:59;;;;;;;35.23;19.85;;;;;;;10.00;86.83;96173.95;1717858;82;21072;-70
2022/11/08 07:35:26;;;;;;;23.40;13.20;;;;;;;9.99;86.71;96179.25;1724251;82;21093;-71
2022/11/08 07:37:54;;;;;;;26.93;14.95;;;;;;;9.96;86.29;96173.11;1712140;82;21033;-71
2022/11/08 07:40:20;;;;;;;25.92;15.30;;;;;;;9.84;85.91;96167.05;1721807;82;21579;-70
2022/11/08 07:42:47;;;;;;;23.52;13.22;;;;;;;9.85;86.62;96170.10;1711570;82;21042;-69
2022/11/08 07:45:13;;;;;;;17.52;10.60;;;;;;;9.89;86.73;96168.76;1717754;82;21156;-70
2022/11/08 07:47:40;;;;;;;18.35;11.30;;;;;;;9.95;86.90;96161.24;1731183;82;21531;-66
2022/11/08 07:50:08;;;;;;;20.55;10.80;;;;;;;10.03;86.93;96163.82;1736429;82;22159;-67
2022/11/08 07:52:34;;;;;;;17.92;10.32;;;;;;;10.09;87.19;96166.44;1696017;83;22277;-65
2022/11/08 07:55:01;;;;;;;20.25;10.53;;;;;;;10.12;86.66;96163.31;1735837;82;21055;-67
2022/11/08 07:57:28;;;;;;;18.25;11.22;;;;;;;10.16;86.76;96159.78;1686048;83;21069;-66
2022/11/08 07:59:54;;;;;;;19.87;11.48;;;;;;;10.24;86.99;96158.40;1718759;82;21096;-68
2022/11/08 08:02:22;;;;;;;23.83;11.48;;;;;;;10.36;86.92;96158.33;1735416;82;21549;-65
2022/11/08 08:04:49;;;;;;;23.67;11.88;;;;;;;10.46;86.40;96155.17;1731529;82;21026;-69
2022/11/08 08:07:16;;;;;;;21.42;12.37;;;;;;;10.56;86.26;96148.92;1710747;83;21600;-65
2022/11/08 08:09:42;;;;;;;19.52;11.55;;;;;;;10.64;85.86;96150.16;1737515;82;21086;-66
2022/11/08 08:12:09;;;;;;;23.27;12.25;;;;;;;10.74;86.09;96148.31;1685774;83;21066;-63
2022/11/08 08:14:36;;;;;;;18.98;10.85;;;;;;;10.92;86.32;96146.78;1733083;82;21551;-65
2022/11/08 08:17:02;;;;;;;23.15;11.35;;;;;;;11.01;85.02;96146.69;1729720;82;21108;-63
2022/11/08 08:19:29;;;;;;;24.35;12.20;;;;;;;11.07;84.87;96144.41;1703478;83;21105;-68
2022/11/08 08:21:55;;;;;;;25.90;12.90;;;;;;;11.08;84.38;96145.28;1693006;83;21117;-67
2022/11/08 08:24:22;;;;;;;22.22;12.15;;;;;;;11.15;85.09;96147.83;1710981;83;21097;-65
2022/11/08 08:26:48;;;;;;;36.23;22.50;;;;;;;11.19;84.07;96138.98;1724062;82;21055;-63
2022/11/08 08:29:15;;;;;;;25.60;16.80;;;;;;;11.15;83.82;96141.68;1723936;81;21037;-67
2022/11/08 08:31:41;;;;;;;32.42;19.87;;;;;;;11.14;83.90;96142.59;1723599;82;21069;-65
2022/11/08 08:34:08;;;;;;;25.77;14.93;;;;;;;11.24;83.86;96141.12;1740175;82;21580;-67
2022/11/08 08:36:35;;;;;;;32.83;21.68;;;;;;;11.42;83.94;96136.05;1738593;82;21857;-65
2022/11/08 08:39:01;;;;;;;20.00;11.95;;;;;;;11.52;82.23;96136.80;1736752;82;21499;-65
2022/11/08 08:41:28;;;;;;;20.68;13.10;;;;;;;11.65;83.39;96134.86;1724035;82;21009;-67
2022/11/08 08:43:54;;;;;;;18.62;11.57;;;;;;;11.77;81.84;96139.08;1727945;82;21076;-67
2022/11/08 08:46:21;;;;;;;19.75;12.58;;;;;;;11.83;80.67;96141.66;1733930;82;21627;-65
2022/11/08 08:48:48;;;;;;;18.57;11.43;;;;;;;11.89;79.46;96137.19;1734175;81;21596;-69
2022/11/08 08:51:15;;;;;;;25.20;13.80;;;;;;;11.89;78.93;96141.16;1732159;82;21543;-67
2022/11/08 08:53:41;;;;;;;21.70;12.82;;;;;;;11.94;79.79;96145.03;1727473;82;21057;-67
2022/11/08 08:56:08;;;;;;;18.37;12.33;;;;;;;12.00;78.78;96148.05;1729442;82;20995;-65
2022/11/08 08:58:35;;;;;;;21.27;13.20;;;;;;;12.02;77.68;96149.77;1735861;82;21114;-68
2022/11/08 09:01:03;;;;;;;21.57;13.08;;;;;;;12.02;78.30;96144.48;1742307;81;21077;-66
2022/11/08 09:03:31;;;;;;;15.95;11.48;;;;;;;12.16;78.89;96144.71;1742141;81;21603;-66
2022/11/08 09:05:58;;;;;;;19.23;11.65;;;;;;;12.19;76.28;96148.17;1705583;82;21030;-70
2022/11/08 09:08:26;;;;;;;18.37;10.50;;;;;;;12.16;76.78;96147.36;1738652;82;21097;-67
2022/11/08 09:10:56;;;;;;;14.90;9.33;;;;;;;12.08;76.06;96150.98;1733774;82;21531;-65
2022/11/08 09:13:25;;;;;;;17.73;10.15;;;;;;;11.98;75.18;96149.38;1736951;82;21345;-67
2022/11/08 09:15:53;;;;;;;15.93;10.18;;;;;;;11.86;75.16;96154.40;1726444;82;21528;-67
2022/11/08 09:18:20;;;;;;;15.28;9.10;;;;;;;11.80;76.01;96157.11;1723643;82;21067;-68
2022/11/08 09:20:47;;;;;;;16.02;9.93;;;;;;;11.84;75.64;96155.28;1740212;81;21093;-70
2022/11/08 09:23:16;;;;;;;17.37;9.90;;;;;;;11.89;75.94;96163.63;1738190;82;21138;-67
2022/11/08 09:25:42;;;;;;;16.93;10.08;;;;;;;12.03;75.37;96159.90;1726002;81;21029;-69
2022/11/08 09:28:09;;;;;;;13.72;9.40;;;;;;;12.28;74.34;96158.61;1733931;81;21042;-69
2022/11/08 09:30:36;;;;;;;12.58;8.00;;;;;;;12.28;74.34;96158.61;1736522;82;21041;-67
2022/11/08 09:33:04;;;;;;;12.25;7.92;;;;;;;12.43;73.86;96155.30;1738335;82;21121;-67
2022/11/08 09:35:30;;;;;;;12.47;6.75;;;;;;;12.61;72.22;96158.94;1739666;82;21058;-65
2022/11/08 09:37:58;;;;;;;9.25;6.80;;;;;;;12.76;73.93;96158.67;1731267;81;21017;-67
2022/11/08 09:40:44;;;;;;;8.98;5.92;;;;;;;12.83;73.21;96148.84;1724037;81;21104;-64
2022/11/08 09:43:37;;;;;;;7.97;5.83;;;;;;;12.95;73.06;96153.02;1711985;82;21041;-70
2022/11/08 09:46:03;;;;;;;9.15;5.37;;;;;;;13.04;72.67;96147.56;1730276;82;21066;-63
2022/11/08 09:48:41;;;;;;;13.10;6.30;;;;;;;13.14;71.29;96149.58;1720315;82;21034;-69
2022/11/08 09:51:20;;;;;;;5.95;4.30;;;;;;;13.38;70.73;96144.25;1730777;82;21031;-68
2022/11/08 09:53:52;;;;;;;4.83;2.42;;;;;;;13.76;65.04;96148.75;1728782;82;21002;-70
2022/11/08 09:56:24;;;;;;;4.10;2.70;;;;;;;14.22;63.90;96141.52;1733848;82;21506;-66
2022/11/08 09:59:04;;;;;;;3.42;1.98;;;;;;;14.82;59.84;96142.23;1722305;82;21017;-66
2022/11/08 10:01:34;;;;;;;5.05;2.30;;;;;;;15.21;54.37;96130.09;1716201;82;22176;-69
2022/11/08 10:04:21;;;;;;;4.62;1.82;;;;;;;15.53;53.90;96130.96;1698559;83;21103;-66
2022/11/08 10:07:14;;;;;;;3.12;2.10;;;;;;;15.95;55.19;96129.26;1718485;83;21034;-65
2022/11/08 10:10:07;;;;;;;3.85;2.92;;;;;;;16.32;52.32;96127.63;1710683;83;21101;-66
2022/11/08 10:13:03;;;;;;;5.50;4.28;;;;;;;16.61;52.16;96128.01;1686224;83;21049;-65
2022/11/08 10:15:44;;;;;;;5.10;3.33;;;;;;;17.00;53.45;96124.05;1702931;83;21069;-65
2022/11/08 10:18:36;;;;;;;5.62;3.10;;;;;;;17.29;51.84;96120.34;1714709;83;21094;-65
2022/11/08 10:21:19;;;;;;;4.42;2.75;;;;;;;17.69;50.60;96122.39;1705331;83;21040;-64
2022/11/08 10:24:03;;;;;;;3.30;2.42;;;;;;;17.89;48.33;96118.09;1704775;83;21046;-65
2022/11/08 10:26:37;;;;;;;4.97;2.47;;;;;;;17.90;45.33;96118.52;1691745;83;21563;-65
2022/11/08 10:29:14;;;;;;;4.50;2.50;;;;;;;18.10;48.04;96111.92;1693590;83;21069;-65
2022/11/08 10:31:45;;;;;;;2.67;2.27;;;;;;;18.34;48.76;96114.52;1701356;83;21548;-65
2022/11/08 10:34:20;;;;;;;4.03;1.90;;;;;;;18.57;46.73;96114.90;1711916;82;21073;-65
2022/11/08 10:36:50;;;;;;;2.33;1.60;;;;;;;18.79;44.73;96106.41;1732188;82;21146;-65
2022/11/08 10:39:24;;;;;;;3.47;2.10;;;;;;;18.89;43.47;96109.56;1733027;82;21042;-65
2022/11/08 10:42:31;;;;;;;2.02;1.40;;;;;;;19.01;45.24;96101.01;1714912;83;21118;-65
2022/11/08 10:44:58;;;;;;;4.33;1.40;;;;;;;19.21;42.70;96100.13;1723577;82;20994;-67
2022/11/08 10:47:29;;;;;;;5.22;1.30;;;;;;;19.11;43.15;96101.48;1714798;83;21520;-64
2022/11/08 10:49:55;;;;;;;4.10;3.22;;;;;;;19.32;43.45;96100.12;1766465;80;21073;-64
2022/11/08 10:52:33;;;;;;;4.42;2.70;;;;;;;19.54;42.85;96100.02;1773286;80;21023;-64
2022/11/08 10:55:01;;;;;;;3.67;2.25;;;;;;;19.56;41.10;96094.99;1768850;80;21061;-64
2022/11/08 10:57:36;;;;;;;4.17;2.70;;;;;;;19.75;43.01;96088.33;1767591;80;21028;-65
2022/11/08 11:00:18;;;;;;;4.47;2.58;;;;;;;19.53;42.20;96090.23;1764729;79;21081;-64
2022/11/08 11:02:48;;;;;;;3.70;2.65;;;;;;;19.07;41.09;96093.17;1753101;79;21085;-65
2022/11/08 11:05:31;;;;;;;3.60;2.05;;;;;;;19.12;40.85;96095.18;1762953;79;21006;-65
2022/11/08 11:08:06;;;;;;;2.62;1.52;;;;;;;19.42;41.16;96091.59;1759271;80;21121;-64
2022/11/08 11:10:37;;;;;;;4.17;2.92;;;;;;;19.51;40.98;96090.80;1762609;80;21547;-64
2022/11/08 11:13:20;;;;;;;5.25;3.15;;;;;;;19.82;38.99;96091.59;1764653;80;21061;-65
2022/11/08 11:15:58;;;;;;;5.10;2.80;;;;;;;20.02;38.83;96086.16;1758117;80;21077;-65
2022/11/08 11:18:35;;;;;;;2.52;2.00;;;;;;;20.36;39.05;96088.55;1762375;81;21015;-64
2022/11/08 11:21:18;;;;;;;3.45;1.25;;;;;;;20.64;39.07;96081.84;1754831;80;21060;-65
2022/11/08 11:23:53;;;;;;;2.10;1.10;;;;;;;21.01;38.32;96075.91;1757863;80;21568;-64
2022/11/08 11:26:30;;;;;;;3.75;1.60;;;;;;;21.23;36.99;96071.63;1757862;80;21153;-64
2022/11/08 11:29:07;;;;;;;3.40;1.65;;;;;;;21.25;35.27;96067.06;1751509;80;21026;-64
2022/11/08 11:31:41;;;;;;;3.27;1.50;;;;;;;21.45;36.87;96069.57;1758638;80;21071;-65
2022/11/08 11:34:22;;;;;;;3.30;1.80;;;;;;;21.63;34.62;96066.35;1762971;80;21006;-65
2022/11/08 11:37:06;;;;;;;3.75;2.47;;;;;;;21.68;35.00;96072.82;1752219;80;21148;-65
2022/11/08 11:39:48;;;;;;;3.40;1.62;;;;;;;21.77;35.55;96074.98;1764135;80;21096;-65
2022/11/08 11:42:38;;;;;;;3.87;3.08;;;;;;;21.91;34.70;96073.75;1764817;80;21042;-64
2022/11/08 11:45:22;;;;;;;2.40;1.62;;;;;;;21.94;32.94;96066.84;1756582;80;21089;-64
2022/11/08 11:47:57;;;;;;;2.72;1.60;;;;;;;22.13;34.76;96070.73;1752616;80;21030;-65
2022/11/08 11:50:40;;;;;;;2.35;1.47;;;;;;;22.36;34.33;96071.27;1766488;80;21105;-65
2022/11/08 11:53:27;;;;;;;4.40;1.80;;;;;;;22.79;34.25;96067.41;1767598;79;21492;-65
2022/11/08 11:56:23;;;;;;;7.50;2.40;;;;;;;22.62;33.10;96063.01;1769324;79;21052;-65
2022/11/08 11:59:03;;;;;;;1.82;1.30;;;;;;;22.53;33.21;96072.50;1759183;79;21567;-64
2022/11/08 12:02:11;;;;;;;3.05;1.22;;;;;;;22.55;32.83;96074.59;1765511;79;21475;-65